sensor_id;sensor_type;location;lat;lon;timestamp;pressure;altitude;pressure_sealevel;temperature;humidity
32251;BME280;41295;48.518;9.206;2023-02-28T00:00:02;97744.47;;;0.32;51.71
32251;BME280;41295;48.518;9.206;2023-02-28T00:02:11;97751.31;;;0.34;52.20
32251;BME280;41295;48.518;9.206;2023-02-28T00:04:13;97743.63;;;0.34;52.27
32251;BME280;41295;48.518;9.206;2023-02-28T00:06:16;97746.19;;;0.34;52.03
32251;BME280;41295;48.518;9.206;2023-02-28T00:08:19;97745.28;;;0.31;52.17
32251;BME280;41295;48.518;9.206;2023-02-28T00:10:24;97746.16;;;0.33;52.52
32251;BME280;41295;48.518;9.206;2023-02-28T00:12:27;97746.13;;;0.27;52.21
32251;BME280;41295;48.518;9.206;2023-02-28T00:14:30;97746.97;;;0.29;52.38
32251;BME280;41295;48.518;9.206;2023-02-28T00:16:34;97753.84;;;0.31;53.06
32251;BME280;41295;48.518;9.206;2023-02-28T00:18:37;97749.56;;;0.30;52.72
32251;BME280;41295;48.518;9.206;2023-02-28T00:20:40;97755.59;;;0.34;52.77
32251;BME280;41295;48.518;9.206;2023-02-28T00:22:45;97751.28;;;0.31;52.85
32251;BME280;41295;48.518;9.206;2023-02-28T00:24:47;97752.09;;;0.29;53.02
32251;BME280;41295;48.518;9.206;2023-02-28T00:26:50;97747.84;;;0.29;52.80
32251;BME280;41295;48.518;9.206;2023-02-28T00:28:53;97746.97;;;0.29;52.61
32251;BME280;41295;48.518;9.206;2023-02-28T00:30:55;97739.19;;;0.18;53.46
32251;BME280;41295;48.518;9.206;2023-02-28T00:33:00;97751.16;;;0.20;52.75
32251;BME280;41295;48.518;9.206;2023-02-28T00:35:03;97740.91;;;0.22;53.25
32251;BME280;41295;48.518;9.206;2023-02-28T00:37:08;97738.34;;;0.23;52.76
32251;BME280;41295;48.518;9.206;2023-02-28T00:39:13;97746.06;;;0.25;53.17
32251;BME280;41295;48.518;9.206;2023-02-28T00:41:16;97735.78;;;0.22;53.16
32251;BME280;41295;48.518;9.206;2023-02-28T00:43:18;97739.22;;;0.22;53.67
32251;BME280;41295;48.518;9.206;2023-02-28T00:45:21;97744.38;;;0.27;53.49
32251;BME280;41295;48.518;9.206;2023-02-28T00:47:23;97745.09;;;0.12;52.88
32251;BME280;41295;48.518;9.206;2023-02-28T00:49:28;97739.19;;;0.19;52.80
32251;BME280;41295;48.518;9.206;2023-02-28T00:51:30;97740.88;;;0.19;53.67
32251;BME280;41295;48.518;9.206;2023-02-28T00:53:33;97738.34;;;0.20;53.43
32251;BME280;41295;48.518;9.206;2023-02-28T00:55:35;97740.03;;;0.20;53.21
32251;BME280;41295;48.518;9.206;2023-02-28T00:57:38;97743.41;;;0.16;53.21
32251;BME280;41295;48.518;9.206;2023-02-28T00:59:41;97743.44;;;0.17;53.65
32251;BME280;41295;48.518;9.206;2023-02-28T01:01:45;97741.75;;;0.18;53.39
32251;BME280;41295;48.518;9.206;2023-02-28T01:03:48;97747.72;;;0.20;53.66
32251;BME280;41295;48.518;9.206;2023-02-28T01:05:52;97740.91;;;0.22;53.63
32251;BME280;41295;48.518;9.206;2023-02-28T01:07:55;97745.16;;;0.20;53.88
32251;BME280;41295;48.518;9.206;2023-02-28T01:09:57;97739.97;;;0.14;53.63
32251;BME280;41295;48.518;9.206;2023-02-28T01:12:00;97740.00;;;0.17;53.76
32251;BME280;41295;48.518;9.206;2023-02-28T01:14:03;97741.69;;;0.16;53.69
32251;BME280;41295;48.518;9.206;2023-02-28T01:16:06;97747.66;;;0.14;53.91
32251;BME280;41295;48.518;9.206;2023-02-28T01:18:09;97740.78;;;0.13;53.78
32251;BME280;41295;48.518;9.206;2023-02-28T01:20:15;97742.53;;;0.12;54.17
32251;BME280;41295;48.518;9.206;2023-02-28T01:22:19;97745.91;;;0.09;53.76
32251;BME280;41295;48.518;9.206;2023-02-28T01:24:21;97746.66;;;0.02;54.80
32251;BME280;41295;48.518;9.206;2023-02-28T01:26:24;97740.78;;;0.11;54.17
32251;BME280;41295;48.518;9.206;2023-02-28T01:28:27;97738.16;;;0.05;54.91
32251;BME280;41295;48.518;9.206;2023-02-28T01:30:31;97740.78;;;0.11;54.65
32251;BME280;41295;48.518;9.206;2023-02-28T01:32:34;97740.78;;;0.11;54.22
32251;BME280;41295;48.518;9.206;2023-02-28T01:34:36;97745.91;;;0.09;54.72
32251;BME280;41295;48.518;9.206;2023-02-28T01:36:39;97734.00;;;0.16;54.31
32251;BME280;41295;48.518;9.206;2023-02-28T01:38:43;97737.38;;;0.09;54.77
32251;BME280;41295;48.518;9.206;2023-02-28T01:40:46;97732.31;;;0.17;54.83
32251;BME280;41295;48.518;9.206;2023-02-28T01:42:48;97727.19;;;0.20;54.34
32251;BME280;41295;48.518;9.206;2023-02-28T01:45:04;97728.06;;;0.19;54.38
32251;BME280;41295;48.518;9.206;2023-02-28T01:47:08;97724.69;;;0.21;55.18
32251;BME280;41295;48.518;9.206;2023-02-28T01:49:13;97728.94;;;0.19;54.69
32251;BME280;41295;48.518;9.206;2023-02-28T01:51:21;97723.81;;;0.21;54.36
32251;BME280;41295;48.518;9.206;2023-02-28T01:53:28;97716.94;;;0.18;54.62
32251;BME280;41295;48.518;9.206;2023-02-28T01:55:34;97713.47;;;0.16;54.43
32251;BME280;41295;48.518;9.206;2023-02-28T01:57:39;97724.53;;;0.09;55.23
32251;BME280;41295;48.518;9.206;2023-02-28T01:59:48;97715.97;;;0.08;55.12
32251;BME280;41295;48.518;9.206;2023-02-28T02:01:52;97723.72;;;0.15;55.74
32251;BME280;41295;48.518;9.206;2023-02-28T02:03:59;97711.78;;;0.15;54.85
32251;BME280;41295;48.518;9.206;2023-02-28T02:06:03;97714.34;;;0.15;55.63
32251;BME280;41295;48.518;9.206;2023-02-28T02:08:08;97717.75;;;0.14;55.77
32251;BME280;41295;48.518;9.206;2023-02-28T02:10:14;97710.75;;;0.02;55.30
32251;BME280;41295;48.518;9.206;2023-02-28T02:12:27;97706.59;;;0.09;55.41
32251;BME280;41295;48.518;9.206;2023-02-28T02:14:43;97712.59;;;0.13;55.47
32251;BME280;41295;48.518;9.206;2023-02-28T02:17:02;97703.13;;;0.07;55.94
32251;BME280;41295;48.518;9.206;2023-02-28T02:19:19;97697.16;;;0.06;55.17
32251;BME280;41295;48.518;9.206;2023-02-28T02:21:45;97698.03;;;0.08;55.74
32251;BME280;41295;48.518;9.206;2023-02-28T02:24:15;97689.44;;;0.06;55.30
32251;BME280;41295;48.518;9.206;2023-02-28T02:26:49;97691.16;;;0.06;56.07
32251;BME280;41295;48.518;9.206;2023-02-28T02:29:10;97690.31;;;0.07;56.25
32251;BME280;41295;48.518;9.206;2023-02-28T02:36:23;97691.09;;;0.01;55.64
32251;BME280;41295;48.518;9.206;2023-02-28T02:38:32;97690.22;;;0.01;56.13
32251;BME280;41295;48.518;9.206;2023-02-28T02:40:40;97694.56;;;0.05;55.95
32251;BME280;41295;48.518;9.206;2023-02-28T02:42:49;97693.72;;;0.07;55.99
32251;BME280;41295;48.518;9.206;2023-02-28T02:44:58;97692.03;;;0.09;56.20
32251;BME280;41295;48.518;9.206;2023-02-28T02:47:06;97695.47;;;0.10;56.30
32251;BME280;41295;48.518;9.206;2023-02-28T02:49:15;97691.22;;;0.10;55.52
32251;BME280;41295;48.518;9.206;2023-02-28T02:51:21;97695.44;;;0.05;55.80
32251;BME280;41295;48.518;9.206;2023-02-28T02:53:28;97694.56;;;0.06;55.71
32251;BME280;41295;48.518;9.206;2023-02-28T02:55:36;97699.69;;;0.05;55.93
32251;BME280;41295;48.518;9.206;2023-02-28T02:57:43;97698.00;;;0.05;56.17
32251;BME280;41295;48.518;9.206;2023-02-28T02:59:49;97703.09;;;0.04;55.97
32251;BME280;41295;48.518;9.206;2023-02-28T03:01:56;97708.19;;;0.02;56.47
32251;BME280;41295;48.518;9.206;2023-02-28T03:04:02;97707.38;;;0.05;56.19
32251;BME280;41295;48.518;9.206;2023-02-28T03:06:06;97709.16;;;0.09;56.11
32251;BME280;41295;48.518;9.206;2023-02-28T03:08:11;97705.72;;;0.08;56.00
32251;BME280;41295;48.518;9.206;2023-02-28T03:10:35;97713.38;;;0.05;56.45
32251;BME280;41295;48.518;9.206;2023-02-28T03:12:41;97709.09;;;0.06;56.58
32251;BME280;41295;48.518;9.206;2023-02-28T03:14:56;97703.97;;;0.06;56.72
32251;BME280;41295;48.518;9.206;2023-02-28T03:17:24;97709.94;;;0.03;56.24
32251;BME280;41295;48.518;9.206;2023-02-28T03:19:37;97706.59;;;0.09;55.96
32251;BME280;41295;48.518;9.206;2023-02-28T03:21:51;97701.41;;;0.07;56.03
32251;BME280;41295;48.518;9.206;2023-02-28T03:24:04;97702.28;;;0.08;56.14
32251;BME280;41295;48.518;9.206;2023-02-28T03:26:16;97694.56;;;0.03;56.51
32251;BME280;41295;48.518;9.206;2023-02-28T03:28:28;97697.13;;;0.03;56.60
32251;BME280;41295;48.518;9.206;2023-02-28T03:30:40;97695.47;;;0.10;56.69
32251;BME280;41295;48.518;9.206;2023-02-28T03:32:51;97697.16;;;0.06;57.05
32251;BME280;41295;48.518;9.206;2023-02-28T03:35:00;97698.03;;;0.10;57.21
32251;BME280;41295;48.518;9.206;2023-02-28T03:37:10;97695.47;;;0.08;57.07
32251;BME280;41295;48.518;9.206;2023-02-28T03:39:18;97692.91;;;0.10;57.26
32251;BME280;41295;48.518;9.206;2023-02-28T03:41:25;97690.38;;;0.13;56.92
32251;BME280;41295;48.518;9.206;2023-02-28T03:43:33;97688.66;;;0.12;57.34
32251;BME280;41295;48.518;9.206;2023-02-28T03:45:38;97692.94;;;0.13;57.69
32251;BME280;41295;48.518;9.206;2023-02-28T03:47:45;97699.81;;;0.14;57.52
32251;BME280;41295;48.518;9.206;2023-02-28T03:49:52;97693.81;;;0.15;57.96
32251;BME280;41295;48.518;9.206;2023-02-28T03:51:59;97695.47;;;0.08;57.90
32251;BME280;41295;48.518;9.206;2023-02-28T03:54:09;97693.72;;;0.07;58.33
32251;BME280;41295;48.518;9.206;2023-02-28T03:56:18;97694.59;;;0.09;58.02
32251;BME280;41295;48.518;9.206;2023-02-28T03:58:27;97695.47;;;0.10;58.43
32251;BME280;41295;48.518;9.206;2023-02-28T04:00:34;97698.91;;;0.10;58.46
32251;BME280;41295;48.518;9.206;2023-02-28T04:02:38;97700.59;;;0.10;58.40
32251;BME280;41295;48.518;9.206;2023-02-28T04:04:41;97700.63;;;0.13;58.80
32251;BME280;41295;48.518;9.206;2023-02-28T04:06:50;97689.53;;;0.14;58.60
32251;BME280;41295;48.518;9.206;2023-02-28T04:08:53;97693.84;;;0.17;58.49
32251;BME280;41295;48.518;9.206;2023-02-28T04:10:59;97692.13;;;0.14;58.25
32251;BME280;41295;48.518;9.206;2023-02-28T04:13:04;97693.06;;;0.26;57.18
32251;BME280;41295;48.518;9.206;2023-02-28T04:15:07;97696.38;;;0.14;58.35
32251;BME280;41295;48.518;9.206;2023-02-28T04:17:11;97690.38;;;0.13;58.60
32251;BME280;41295;48.518;9.206;2023-02-28T04:19:14;97689.50;;;0.11;58.65
32251;BME280;41295;48.518;9.206;2023-02-28T04:21:17;97692.91;;;0.11;58.73
32251;BME280;41295;48.518;9.206;2023-02-28T04:23:22;97695.50;;;0.13;58.43
32251;BME280;41295;48.518;9.206;2023-02-28T04:25:24;97688.69;;;0.15;58.45
32251;BME280;41295;48.518;9.206;2023-02-28T04:27:27;97696.41;;;0.17;58.74
32251;BME280;41295;48.518;9.206;2023-02-28T04:29:34;97693.84;;;0.17;58.97
32251;BME280;41295;48.518;9.206;2023-02-28T04:31:37;97698.97;;;0.20;59.06
32251;BME280;41295;48.518;9.206;2023-02-28T04:33:40;97692.16;;;0.20;59.24
32251;BME280;41295;48.518;9.206;2023-02-28T04:35:42;97690.34;;;0.11;59.33
32251;BME280;41295;48.518;9.206;2023-02-28T04:37:45;97690.38;;;0.13;58.95
32251;BME280;41295;48.518;9.206;2023-02-28T04:39:47;97687.78;;;0.10;59.44
32251;BME280;41295;48.518;9.206;2023-02-28T04:41:50;97680.97;;;0.14;59.27
32251;BME280;41295;48.518;9.206;2023-02-28T04:43:53;97687.78;;;0.11;59.11
32251;BME280;41295;48.518;9.206;2023-02-28T04:46:01;97688.66;;;0.12;59.60
32251;BME280;41295;48.518;9.206;2023-02-28T04:48:04;97686.91;;;0.11;59.19
32251;BME280;41295;48.518;9.206;2023-02-28T04:50:08;97692.94;;;0.15;59.28
32251;BME280;41295;48.518;9.206;2023-02-28T04:52:11;97687.81;;;0.15;59.13
32251;BME280;41295;48.518;9.206;2023-02-28T04:54:14;97692.06;;;0.13;59.18
32251;BME280;41295;48.518;9.206;2023-02-28T04:56:18;97683.53;;;0.10;59.42
32251;BME280;41295;48.518;9.206;2023-02-28T04:58:20;97686.97;;;0.14;59.83
32251;BME280;41295;48.518;9.206;2023-02-28T05:00:24;97683.56;;;0.15;59.37
32251;BME280;41295;48.518;9.206;2023-02-28T05:02:28;97682.69;;;0.15;59.01
32251;BME280;41295;48.518;9.206;2023-02-28T05:04:31;97686.94;;;0.13;59.41
32251;BME280;41295;48.518;9.206;2023-02-28T05:06:35;97690.41;;;0.16;59.39
32251;BME280;41295;48.518;9.206;2023-02-28T05:08:38;97693.00;;;0.18;59.41
32251;BME280;41295;48.518;9.206;2023-02-28T05:10:40;97696.38;;;0.15;60.13
32251;BME280;41295;48.518;9.206;2023-02-28T05:12:43;97700.69;;;0.18;59.74
32251;BME280;41295;48.518;9.206;2023-02-28T05:14:45;97701.66;;;0.31;59.40
32251;BME280;41295;48.518;9.206;2023-02-28T05:16:48;97701.56;;;0.20;59.40
32251;BME280;41295;48.518;9.206;2023-02-28T05:18:52;97702.31;;;0.11;60.12
32251;BME280;41295;48.518;9.206;2023-02-28T05:20:55;97707.41;;;0.08;59.35
32251;BME280;41295;48.518;9.206;2023-02-28T05:22:59;97704.03;;;0.09;59.95
32251;BME280;41295;48.518;9.206;2023-02-28T05:25:03;97704.03;;;0.09;60.31
32251;BME280;41295;48.518;9.206;2023-02-28T05:27:06;97710.88;;;0.13;60.22
32251;BME280;41295;48.518;9.206;2023-02-28T05:29:09;97707.50;;;0.14;60.28
32251;BME280;41295;48.518;9.206;2023-02-28T05:31:12;97708.31;;;0.11;60.01
32251;BME280;41295;48.518;9.206;2023-02-28T05:33:15;97712.56;;;0.09;60.51
32251;BME280;41295;48.518;9.206;2023-02-28T05:35:19;97719.41;;;0.09;60.42
32251;BME280;41295;48.518;9.206;2023-02-28T05:37:21;97712.50;;;0.05;60.71
32251;BME280;41295;48.518;9.206;2023-02-28T05:39:24;97711.72;;;0.09;60.31
32251;BME280;41295;48.518;9.206;2023-02-28T05:41:26;97716.88;;;0.10;60.72
32251;BME280;41295;48.518;9.206;2023-02-28T05:43:30;97706.59;;;0.10;60.43
32251;BME280;41295;48.518;9.206;2023-02-28T05:45:32;97707.41;;;0.06;61.14
32251;BME280;41295;48.518;9.206;2023-02-28T05:47:35;97709.94;;;0.05;60.77
32251;BME280;41295;48.518;9.206;2023-02-28T05:49:38;97713.41;;;0.07;60.49
32251;BME280;41295;48.518;9.206;2023-02-28T05:51:42;97718.53;;;0.08;61.17
32251;BME280;41295;48.518;9.206;2023-02-28T05:53:44;97702.31;;;0.13;60.28
32251;BME280;41295;48.518;9.206;2023-02-28T05:55:48;97702.31;;;0.11;60.81
32251;BME280;41295;48.518;9.206;2023-02-28T05:57:53;97705.75;;;0.13;60.50
32251;BME280;41295;48.518;9.206;2023-02-28T05:59:55;97704.88;;;0.11;60.80
32251;BME280;41295;48.518;9.206;2023-02-28T06:01:58;97708.28;;;0.07;60.65
32251;BME280;41295;48.518;9.206;2023-02-28T06:04:02;97703.97;;;0.07;60.43
32251;BME280;41295;48.518;9.206;2023-02-28T06:06:05;97709.97;;;0.08;60.78
32251;BME280;41295;48.518;9.206;2023-02-28T06:08:09;97715.16;;;0.13;61.16
32251;BME280;41295;48.518;9.206;2023-02-28T06:10:13;97716.03;;;0.16;61.04
32251;BME280;41295;48.518;9.206;2023-02-28T06:12:16;97713.47;;;0.13;60.79
32251;BME280;41295;48.518;9.206;2023-02-28T06:14:19;97717.00;;;0.23;59.62
32251;BME280;41295;48.518;9.206;2023-02-28T06:16:22;97716.13;;;0.21;60.13
32251;BME280;41295;48.518;9.206;2023-02-28T06:18:25;97722.13;;;0.23;60.49
32251;BME280;41295;48.518;9.206;2023-02-28T06:20:28;97725.50;;;0.20;59.89
32251;BME280;41295;48.518;9.206;2023-02-28T06:22:31;97722.06;;;0.20;59.91
32251;BME280;41295;48.518;9.206;2023-02-28T06:24:35;97728.03;;;0.14;60.40
32251;BME280;41295;48.518;9.206;2023-02-28T06:26:38;97734.88;;;0.18;60.01
32251;BME280;41295;48.518;9.206;2023-02-28T06:28:40;97741.69;;;0.16;59.99
32251;BME280;41295;48.518;9.206;2023-02-28T06:30:43;97739.25;;;0.26;58.82
32251;BME280;41295;48.518;9.206;2023-02-28T06:32:46;97738.34;;;0.23;59.30
32251;BME280;41295;48.518;9.206;2023-02-28T06:34:50;97746.06;;;0.23;60.03
32251;BME280;41295;48.518;9.206;2023-02-28T06:36:54;97743.56;;;0.27;59.69
32251;BME280;41295;48.518;9.206;2023-02-28T06:38:56;97737.53;;;0.25;59.57
32251;BME280;41295;48.518;9.206;2023-02-28T06:41:00;97737.50;;;0.21;59.82
32251;BME280;41295;48.518;9.206;2023-02-28T06:43:03;97747.78;;;0.23;59.75
32251;BME280;41295;48.518;9.206;2023-02-28T06:45:07;97747.72;;;0.18;59.44
32251;BME280;41295;48.518;9.206;2023-02-28T06:47:11;97750.34;;;0.25;59.34
32251;BME280;41295;48.518;9.206;2023-02-28T06:49:13;97752.06;;;0.26;59.00
32251;BME280;41295;48.518;9.206;2023-02-28T06:51:18;97760.63;;;0.26;59.51
32251;BME280;41295;48.518;9.206;2023-02-28T06:53:21;97752.06;;;0.26;59.83
32251;BME280;41295;48.518;9.206;2023-02-28T06:55:24;97755.66;;;0.39;58.95
32251;BME280;41295;48.518;9.206;2023-02-28T06:57:29;97760.75;;;0.34;58.47
32251;BME280;41295;48.518;9.206;2023-02-28T06:59:34;97757.31;;;0.33;59.27
32251;BME280;41295;48.518;9.206;2023-02-28T07:01:37;97752.97;;;0.31;58.38
32251;BME280;41295;48.518;9.206;2023-02-28T07:03:40;97757.31;;;0.37;58.86
32251;BME280;41295;48.518;9.206;2023-02-28T07:05:43;97760.69;;;0.31;58.96
32251;BME280;41295;48.518;9.206;2023-02-28T07:07:45;97755.69;;;0.43;58.66
32251;BME280;41295;48.518;9.206;2023-02-28T07:09:48;97756.47;;;0.36;59.04
32251;BME280;41295;48.518;9.206;2023-02-28T07:11:51;97765.06;;;0.41;58.48
32251;BME280;41295;48.518;9.206;2023-02-28T07:13:55;97762.47;;;0.38;58.99
32251;BME280;41295;48.518;9.206;2023-02-28T07:16:00;97760.78;;;0.39;58.58
32251;BME280;41295;48.518;9.206;2023-02-28T07:18:03;97777.06;;;0.41;58.95
32251;BME280;41295;48.518;9.206;2023-02-28T07:20:07;97768.50;;;0.42;59.16
32251;BME280;41295;48.518;9.206;2023-02-28T07:22:10;97768.50;;;0.42;58.94
32251;BME280;41295;48.518;9.206;2023-02-28T07:24:15;97777.94;;;0.44;58.80
32251;BME280;41295;48.518;9.206;2023-02-28T07:26:20;97775.41;;;0.46;58.79
32251;BME280;41295;48.518;9.206;2023-02-28T07:28:22;97779.75;;;0.55;58.41
32251;BME280;41295;48.518;9.206;2023-02-28T07:30:26;97775.44;;;0.49;58.62
32251;BME280;41295;48.518;9.206;2023-02-28T07:32:29;97772.03;;;0.52;58.85
32251;BME280;41295;48.518;9.206;2023-02-28T07:34:32;97771.19;;;0.53;58.48
32251;BME280;41295;48.518;9.206;2023-02-28T07:36:34;97770.38;;;0.55;59.09
32251;BME280;41295;48.518;9.206;2023-02-28T07:38:37;97773.75;;;0.54;58.37
32251;BME280;41295;48.518;9.206;2023-02-28T07:40:40;97776.41;;;0.59;58.51
32251;BME280;41295;48.518;9.206;2023-02-28T07:42:43;97772.09;;;0.58;58.08
32251;BME280;41295;48.518;9.206;2023-02-28T07:44:46;97775.56;;;0.63;58.08
32251;BME280;41295;48.518;9.206;2023-02-28T07:46:50;97777.25;;;0.61;58.68
32251;BME280;41295;48.518;9.206;2023-02-28T07:48:52;97770.41;;;0.58;58.74
32251;BME280;41295;48.518;9.206;2023-02-28T07:50:56;97770.44;;;0.66;58.25
32251;BME280;41295;48.518;9.206;2023-02-28T07:52:59;97767.88;;;0.63;58.37
32251;BME280;41295;48.518;9.206;2023-02-28T07:55:02;97775.72;;;0.79;57.60
32251;BME280;41295;48.518;9.206;2023-02-28T07:57:05;97774.00;;;0.76;56.20
32251;BME280;41295;48.518;9.206;2023-02-28T07:59:08;97775.66;;;0.73;57.24
32251;BME280;41295;48.518;9.206;2023-02-28T08:01:11;97781.63;;;0.71;57.13
32251;BME280;41295;48.518;9.206;2023-02-28T08:03:16;97778.22;;;0.71;57.34
32251;BME280;41295;48.518;9.206;2023-02-28T08:05:19;97784.19;;;0.70;57.06
32251;BME280;41295;48.518;9.206;2023-02-28T08:07:22;97782.63;;;0.86;57.00
32251;BME280;41295;48.518;9.206;2023-02-28T08:09:25;97783.47;;;0.80;56.46
32251;BME280;41295;48.518;9.206;2023-02-28T08:11:28;97786.84;;;0.76;57.11
32251;BME280;41295;48.518;9.206;2023-02-28T08:13:31;97791.22;;;0.87;55.88
32251;BME280;41295;48.518;9.206;2023-02-28T08:15:34;97791.19;;;0.85;55.70
32251;BME280;41295;48.518;9.206;2023-02-28T08:17:37;97799.03;;;0.99;55.57
32251;BME280;41295;48.518;9.206;2023-02-28T08:19:41;97798.88;;;0.83;56.42
32251;BME280;41295;48.518;9.206;2023-02-28T08:21:44;97795.44;;;0.83;56.15
32251;BME280;41295;48.518;9.206;2023-02-28T08:23:47;97791.16;;;0.82;56.36
32251;BME280;41295;48.518;9.206;2023-02-28T08:25:53;97798.00;;;0.83;56.79
32251;BME280;41295;48.518;9.206;2023-02-28T08:27:55;97790.34;;;0.86;56.55
32251;BME280;41295;48.518;9.206;2023-02-28T08:29:58;97792.88;;;0.84;56.84
32251;BME280;41295;48.518;9.206;2023-02-28T08:32:01;97796.34;;;0.88;57.06
32251;BME280;41295;48.518;9.206;2023-02-28T08:34:05;97800.69;;;0.95;56.49
32251;BME280;41295;48.518;9.206;2023-02-28T08:36:09;97802.50;;;1.04;55.97
32251;BME280;41295;48.518;9.206;2023-02-28T08:38:12;97804.16;;;1.01;56.04
32251;BME280;41295;48.518;9.206;2023-02-28T08:40:15;97800.78;;;1.02;55.69
32251;BME280;41295;48.518;9.206;2023-02-28T08:42:19;97797.34;;;1.03;55.89
32251;BME280;41295;48.518;9.206;2023-02-28T08:44:22;97805.03;;;1.01;56.09
32251;BME280;41295;48.518;9.206;2023-02-28T08:46:25;97806.72;;;0.99;55.58
32251;BME280;41295;48.518;9.206;2023-02-28T08:48:30;97811.06;;;1.02;56.04
32251;BME280;41295;48.518;9.206;2023-02-28T08:50:32;97812.75;;;1.00;55.36
32251;BME280;41295;48.518;9.206;2023-02-28T08:52:36;97811.06;;;1.02;55.99
32251;BME280;41295;48.518;9.206;2023-02-28T08:54:39;97809.41;;;1.12;54.93
32251;BME280;41295;48.518;9.206;2023-02-28T08:56:42;97809.53;;;1.29;54.92
32251;BME280;41295;48.518;9.206;2023-02-28T08:58:46;97806.16;;;1.33;54.10
32251;BME280;41295;48.518;9.206;2023-02-28T09:00:50;97808.84;;;1.47;53.42
32251;BME280;41295;48.518;9.206;2023-02-28T09:02:52;97812.31;;;1.55;53.78
32251;BME280;41295;48.518;9.206;2023-02-28T09:04:56;97819.88;;;1.30;54.25
32251;BME280;41295;48.518;9.206;2023-02-28T09:06:58;97819.78;;;1.23;54.89
32251;BME280;41295;48.518;9.206;2023-02-28T09:09:02;97820.66;;;1.25;54.46
32251;BME280;41295;48.518;9.206;2023-02-28T09:11:07;97819.72;;;1.16;54.65
32251;BME280;41295;48.518;9.206;2023-02-28T09:13:10;97823.13;;;1.12;55.38
32251;BME280;41295;48.518;9.206;2023-02-28T09:15:12;97824.06;;;1.22;54.79
32251;BME280;41295;48.518;9.206;2023-02-28T09:17:15;97824.03;;;1.19;55.08
32251;BME280;41295;48.518;9.206;2023-02-28T09:19:18;97829.19;;;1.19;55.27
32251;BME280;41295;48.518;9.206;2023-02-28T09:21:20;97822.25;;;1.13;55.11
32251;BME280;41295;48.518;9.206;2023-02-28T09:23:24;97832.56;;;1.15;55.49
32251;BME280;41295;48.518;9.206;2023-02-28T09:25:28;97830.00;;;1.16;55.38
32251;BME280;41295;48.518;9.206;2023-02-28T09:27:30;97832.59;;;1.18;55.58
32251;BME280;41295;48.518;9.206;2023-02-28T09:29:34;97838.59;;;1.20;55.83
32251;BME280;41295;48.518;9.206;2023-02-28T09:31:37;97838.59;;;1.22;55.37
32251;BME280;41295;48.518;9.206;2023-02-28T09:33:40;97841.25;;;1.28;55.93
32251;BME280;41295;48.518;9.206;2023-02-28T09:35:43;97838.66;;;1.25;55.26
32251;BME280;41295;48.518;9.206;2023-02-28T09:37:45;97833.50;;;1.25;55.92
32251;BME280;41295;48.518;9.206;2023-02-28T09:39:50;97833.53;;;1.26;55.92
32251;BME280;41295;48.518;9.206;2023-02-28T09:41:55;97836.19;;;1.36;55.12
32251;BME280;41295;48.518;9.206;2023-02-28T09:44:01;97836.31;;;1.54;54.92
32251;BME280;41295;48.518;9.206;2023-02-28T09:46:09;97834.53;;;1.44;55.16
32251;BME280;41295;48.518;9.206;2023-02-28T09:48:20;97832.84;;;1.51;54.17
32251;BME280;41295;48.518;9.206;2023-02-28T09:50:30;97838.00;;;1.54;54.76
32251;BME280;41295;48.518;9.206;2023-02-28T09:52:36;97842.31;;;1.53;54.84
32251;BME280;41295;48.518;9.206;2023-02-28T09:54:39;97841.44;;;1.50;54.60
32251;BME280;41295;48.518;9.206;2023-02-28T09:56:42;97843.19;;;1.57;54.17
32251;BME280;41295;48.518;9.206;2023-02-28T09:58:49;97847.47;;;1.53;55.30
32251;BME280;41295;48.518;9.206;2023-02-28T10:01:00;97847.44;;;1.52;54.59
32251;BME280;41295;48.518;9.206;2023-02-28T10:03:25;97849.19;;;1.59;53.73
32251;BME280;41295;48.518;9.206;2023-02-28T10:05:33;97860.31;;;1.55;54.38
32251;BME280;41295;48.518;9.206;2023-02-28T10:07:55;97859.44;;;1.53;54.88
32251;BME280;41295;48.518;9.206;2023-02-28T10:10:03;97857.81;;;1.64;54.62
32251;BME280;41295;48.518;9.206;2023-02-28T10:12:09;97865.56;;;1.71;53.64
32251;BME280;41295;48.518;9.206;2023-02-28T10:14:16;97853.53;;;1.65;53.76
32251;BME280;41295;48.518;9.206;2023-02-28T10:16:25;97865.50;;;1.63;55.48
32251;BME280;41295;48.518;9.206;2023-02-28T10:18:38;97860.41;;;1.66;55.06
32251;BME280;41295;48.518;9.206;2023-02-28T10:20:43;97860.41;;;1.67;54.78
32251;BME280;41295;48.518;9.206;2023-02-28T10:22:53;97859.56;;;1.72;55.54
32251;BME280;41295;48.518;9.206;2023-02-28T10:24:59;97854.41;;;1.70;55.05
32251;BME280;41295;48.518;9.206;2023-02-28T10:27:13;97861.50;;;2.02;53.74
32251;BME280;41295;48.518;9.206;2023-02-28T10:29:18;97862.41;;;2.11;53.63
32251;BME280;41295;48.518;9.206;2023-02-28T10:31:20;97863.16;;;1.92;52.96
32251;BME280;41295;48.518;9.206;2023-02-28T10:33:29;97859.72;;;1.92;54.63
32251;BME280;41295;48.518;9.206;2023-02-28T10:35:32;97861.47;;;1.96;54.08
32251;BME280;41295;48.518;9.206;2023-02-28T10:37:37;97866.63;;;1.99;54.85
32251;BME280;41295;48.518;9.206;2023-02-28T10:39:41;97857.22;;;2.00;54.93
32251;BME280;41295;48.518;9.206;2023-02-28T10:41:44;97859.75;;;1.97;54.45
32251;BME280;41295;48.518;9.206;2023-02-28T10:43:48;97870.09;;;2.03;54.71
32251;BME280;41295;48.518;9.206;2023-02-28T10:45:57;97864.94;;;2.06;54.06
32251;BME280;41295;48.518;9.206;2023-02-28T10:48:03;97861.50;;;2.04;54.07
32251;BME280;41295;48.518;9.206;2023-02-28T10:50:33;97867.50;;;2.01;53.99
32251;BME280;41295;48.518;9.206;2023-02-28T10:52:39;97858.97;;;2.07;54.55
32251;BME280;41295;48.518;9.206;2023-02-28T10:54:42;97859.78;;;2.03;53.99
32251;BME280;41295;48.518;9.206;2023-02-28T10:56:45;97851.31;;;2.20;53.50
32251;BME280;41295;48.518;9.206;2023-02-28T10:58:52;97856.44;;;2.16;53.83
32251;BME280;41295;48.518;9.206;2023-02-28T11:00:57;97854.84;;;2.40;53.29
32251;BME280;41295;48.518;9.206;2023-02-28T11:03:00;97853.97;;;2.37;53.38
32251;BME280;41295;48.518;9.206;2023-02-28T11:05:23;97856.53;;;2.37;53.56
32251;BME280;41295;48.518;9.206;2023-02-28T11:07:26;97859.13;;;2.37;53.67
32251;BME280;41295;48.518;9.206;2023-02-28T11:09:45;97857.44;;;2.47;52.99
32251;BME280;41295;48.518;9.206;2023-02-28T11:11:48;97864.38;;;2.65;52.37
32251;BME280;41295;48.518;9.206;2023-02-28T11:13:53;97866.91;;;2.54;52.82
32251;BME280;41295;48.518;9.206;2023-02-28T11:16:00;97870.34;;;2.48;53.19